Ryuhomaru — JD2639 — position and weather

sailwx.info

Track history (hours):
 
Tides and Currents Weather Stations Pressure Air Temp Water Temp Dewpoint Dewpoint Depression Visibility Wind Speed Wind Dir Waves Ship Positions

Ryuhomaru

Last reported at 2014-Aug-21 02:22 UTC. Time now 2014-Aug-22 21:43 UTC.
Position N 34°33' E 135°27'.

Length 42 m; draft 3.5 m.

Type: Tug. MMSI: 431000586.

Date/timePositionNaut miles runAvg speedWind from/ knotsBaromVisibWave heightAir tempDewpointWater temp
2014-Aug-21 02:22N 34°33' E 135°27'3 3.4
2014-Aug-21 01:33N 34°34' E 135°23'1 0.6
2014-Aug-21 00:33N 34°34' E 135°23'2 2.3
2014-Aug-20 23:32N 34°33' E 135°25'1 0.5
2014-Aug-20 22:18N 34°33' E 135°25'1 0.1
2014-Aug-20 07:32N 34°34' E 135°24'5 5.4
2014-Aug-20 06:33N 34°39' E 135°24'3 2.9
2014-Aug-20 05:33N 34°36' E 135°24'0 0.0
2014-Aug-20 04:33N 34°36' E 135°24'0 0.0
2014-Aug-20 03:32N 34°36' E 135°24'2 1.9
2014-Aug-20 02:27N 34°34' E 135°24'0 0.3
2014-Aug-20 01:33N 34°34' E 135°24'3 2.7
2014-Aug-20 00:33N 34°33' E 135°21'3 3.3
2014-Aug-19 23:32N 34°33' E 135°25'1 1.4
2014-Aug-19 22:33N 34°33' E 135°27'2 0.1
2014-Aug-18 06:32N 34°33' E 135°24'2 1.8
2014-Aug-18 05:33N 34°33' E 135°26'0 0.1
2014-Aug-18 04:32N 34°33' E 135°26'3 2.9
2014-Aug-18 03:33N 34°33' E 135°22'2 1.6
2014-Aug-18 02:33N 34°34' E 135°21'0 0.1
2014-Aug-18 01:32N 34°34' E 135°20'4 4.0
2014-Aug-18 00:33N 34°33' E 135°25'1 0.0
2014-Aug-16 07:33N 34°33' E 135°27'3 3.4
2014-Aug-16 06:33N 34°31' E 135°23'0 0.0
2014-Aug-16 04:28N 34°31' E 135°23'0 0.1
2014-Aug-16 01:25N 34°31' E 135°23'1 1.5
2014-Aug-16 00:33N 34°32' E 135°23'3 3.0
2014-Aug-15 23:31N 34°33' E 135°27'0 0.0
2014-Aug-14 09:22N 34°33' E 135°27'5 6.6
2014-Aug-14 08:33N 34°30' E 135°21'2 0.9
2014-Aug-14 06:07N 34°28' E 135°21'0 0.1
2014-Aug-14 04:33N 34°28' E 135°21'9 8.7
2014-Aug-14 03:34N 34°37' E 135°23'1 1.1
2014-Aug-14 02:33N 34°37' E 135°23'5 5.5
2014-Aug-14 01:33N 34°33' E 135°27'0 0.0
2014-Aug-14 00:04N 34°33' E 135°27'0 0.0
2014-Aug-13 08:33N 34°33' E 135°27'1 1.1
2014-Aug-13 07:33N 34°33' E 135°25'1 1.1
2014-Aug-13 06:33N 34°33' E 135°27'0 0.0
2014-Aug-13 05:32N 34°33' E 135°27'3 2.8
2014-Aug-13 04:33N 34°36' E 135°25'0 0.1
2014-Aug-13 03:33N 34°36' E 135°25'3 2.6
2014-Aug-13 02:33N 34°36' E 135°22'5 4.5
2014-Aug-13 01:33N 34°33' E 135°27'0 0.0
2014-Aug-13 00:33N 34°33' E 135°27'0 0.0
2014-Aug-12 23:33N 34°33' E 135°27'2 2.4
2014-Aug-12 22:33N 34°32' E 135°24'1 1.0
2014-Aug-12 21:33N 34°33' E 135°24'2 2.1
2014-Aug-12 20:33N 34°33' E 135°27'0 0.0
2014-Aug-12 08:32N 34°33' E 135°27'1010.2
2014-Aug-12 07:33N 34°29' E 135°16'14 7.0
2014-Aug-12 05:33N 34°22' E 135°01'1514.7
2014-Aug-12 04:33N 34°30' E 135°15'8 8.2
2014-Aug-12 03:32N 34°34' E 135°24'2 2.0
2014-Aug-12 02:33N 34°33' E 135°27'0 0.0
2014-Aug-12 01:32N 34°33' E 135°27'0 0.0
2014-Aug-12 00:28N 34°33' E 135°27'4 3.9
2014-Aug-11 23:32N 34°36' E 135°24'0 0.0
2014-Aug-11 22:33N 34°36' E 135°24'7 7.4
2014-Aug-11 21:33N 34°35' E 135°15'1312.7
2014-Aug-11 20:30N 34°37' E 134°59'6 6.4
2014-Aug-11 19:33N 34°35' E 135°06'4 4.1
2014-Aug-11 18:33N 34°35' E 135°11'0 0.1
2014-Aug-11 17:33N 34°35' E 135°11'1010.2
2014-Aug-11 16:34N 34°34' E 135°23'3 3.2
2014-Aug-11 15:33N 34°33' E 135°27'0 0.0
2014-Aug-11 08:26N 34°33' E 135°27'3 2.9
2014-Aug-11 07:33N 34°32' E 135°24'1 0.9
2014-Aug-11 06:33N 34°32' E 135°23'2 1.5
2014-Aug-11 05:24N 34°31' E 135°24'3 1.7
2014-Aug-11 03:32N 34°34' E 135°24'3 3.5
2014-Aug-11 02:33N 34°33' E 135°20'  
Track history (hours):
 
Tides and Currents Weather Stations Pressure Air Temp Water Temp Dewpoint Dewpoint Depression Visibility Wind Speed Wind Dir Waves Ship Positions

Ryuhomaru

Last reported at 2014-Aug-21 02:22 UTC. Time now 2014-Aug-22 21:43 UTC.
Position N 34°33' E 135°27'.

Length 42 m; draft 3.5 m.

Type: Tug. MMSI: 431000586.

Date/timePositionNaut miles runAvg speedWind from/ knotsBaromVisibWave heightAir tempDewpointWater temp
2014-Aug-21 02:22N 34°33' E 135°27'3 3.4
2014-Aug-21 01:33N 34°34' E 135°23'1 0.6
2014-Aug-21 00:33N 34°34' E 135°23'2 2.3
2014-Aug-20 23:32N 34°33' E 135°25'1 0.5
2014-Aug-20 22:18N 34°33' E 135°25'1 0.1
2014-Aug-20 07:32N 34°34' E 135°24'5 5.4
2014-Aug-20 06:33N 34°39' E 135°24'3 2.9
2014-Aug-20 05:33N 34°36' E 135°24'0 0.0
2014-Aug-20 04:33N 34°36' E 135°24'0 0.0
2014-Aug-20 03:32N 34°36' E 135°24'2 1.9
2014-Aug-20 02:27N 34°34' E 135°24'0 0.3
2014-Aug-20 01:33N 34°34' E 135°24'3 2.7
2014-Aug-20 00:33N 34°33' E 135°21'3 3.3
2014-Aug-19 23:32N 34°33' E 135°25'1 1.4
2014-Aug-19 22:33N 34°33' E 135°27'2 0.1
2014-Aug-18 06:32N 34°33' E 135°24'2 1.8
2014-Aug-18 05:33N 34°33' E 135°26'0 0.1
2014-Aug-18 04:32N 34°33' E 135°26'3 2.9
2014-Aug-18 03:33N 34°33' E 135°22'2 1.6
2014-Aug-18 02:33N 34°34' E 135°21'0 0.1
2014-Aug-18 01:32N 34°34' E 135°20'4 4.0
2014-Aug-18 00:33N 34°33' E 135°25'1 0.0
2014-Aug-16 07:33N 34°33' E 135°27'3 3.4
2014-Aug-16 06:33N 34°31' E 135°23'0 0.0
2014-Aug-16 04:28N 34°31' E 135°23'0 0.1
2014-Aug-16 01:25N 34°31' E 135°23'1 1.5
2014-Aug-16 00:33N 34°32' E 135°23'3 3.0
2014-Aug-15 23:31N 34°33' E 135°27'0 0.0
2014-Aug-14 09:22N 34°33' E 135°27'5 6.6
2014-Aug-14 08:33N 34°30' E 135°21'2 0.9
2014-Aug-14 06:07N 34°28' E 135°21'0 0.1
2014-Aug-14 04:33N 34°28' E 135°21'9 8.7
2014-Aug-14 03:34N 34°37' E 135°23'1 1.1
2014-Aug-14 02:33N 34°37' E 135°23'5 5.5
2014-Aug-14 01:33N 34°33' E 135°27'0 0.0
2014-Aug-14 00:04N 34°33' E 135°27'0 0.0
2014-Aug-13 08:33N 34°33' E 135°27'1 1.1
2014-Aug-13 07:33N 34°33' E 135°25'1 1.1
2014-Aug-13 06:33N 34°33' E 135°27'0 0.0
2014-Aug-13 05:32N 34°33' E 135°27'3 2.8
2014-Aug-13 04:33N 34°36' E 135°25'0 0.1
2014-Aug-13 03:33N 34°36' E 135°25'3 2.6
2014-Aug-13 02:33N 34°36' E 135°22'5 4.5
2014-Aug-13 01:33N 34°33' E 135°27'0 0.0
2014-Aug-13 00:33N 34°33' E 135°27'0 0.0
2014-Aug-12 23:33N 34°33' E 135°27'2 2.4
2014-Aug-12 22:33N 34°32' E 135°24'1 1.0
2014-Aug-12 21:33N 34°33' E 135°24'2 2.1
2014-Aug-12 20:33N 34°33' E 135°27'0 0.0
2014-Aug-12 08:32N 34°33' E 135°27'1010.2
2014-Aug-12 07:33N 34°29' E 135°16'14 7.0
2014-Aug-12 05:33N 34°22' E 135°01'1514.7
2014-Aug-12 04:33N 34°30' E 135°15'8 8.2
2014-Aug-12 03:32N 34°34' E 135°24'2 2.0
2014-Aug-12 02:33N 34°33' E 135°27'0 0.0
2014-Aug-12 01:32N 34°33' E 135°27'0 0.0
2014-Aug-12 00:28N 34°33' E 135°27'4 3.9
2014-Aug-11 23:32N 34°36' E 135°24'0 0.0
2014-Aug-11 22:33N 34°36' E 135°24'7 7.4
2014-Aug-11 21:33N 34°35' E 135°15'1312.7
2014-Aug-11 20:30N 34°37' E 134°59'6 6.4
2014-Aug-11 19:33N 34°35' E 135°06'4 4.1
2014-Aug-11 18:33N 34°35' E 135°11'0 0.1
2014-Aug-11 17:33N 34°35' E 135°11'1010.2
2014-Aug-11 16:34N 34°34' E 135°23'3 3.2
2014-Aug-11 15:33N 34°33' E 135°27'0 0.0
2014-Aug-11 08:26N 34°33' E 135°27'3 2.9
2014-Aug-11 07:33N 34°32' E 135°24'1 0.9
2014-Aug-11 06:33N 34°32' E 135°23'2 1.5
2014-Aug-11 05:24N 34°31' E 135°24'3 1.7
2014-Aug-11 03:32N 34°34' E 135°24'3 3.5
2014-Aug-11 02:33N 34°33' E 135°20'  

Dump ship's entire track history